Time,TemperatureF,DewpointF,PressureIn,WindDirection,WindDirectionDegrees,WindSpeedMPH,WindSpeedGustMPH,Humidity,HourlyPrecipIn,Conditions,Clouds,dailyrainin,SolarRadiationWatts/m^2,SoftwareType,DateUTC
2013-02-25 01:21:00,12.0,8.0,-100.00,SSE,150,0.0,1.0,83,-99.99,,,0.00,1.000000,,2013-02-25 09:21:00,
2013-02-25 03:11:00,11.0,7.0,-100.00,NNE,20,1.0,3.0,83,-99.99,,,0.00,1.000000,,2013-02-25 11:11:00,
2013-02-25 03:21:00,11.0,7.0,-100.00,NNE,20,1.0,3.0,83,-99.99,,,0.00,1.000000,,2013-02-25 11:21:00,
2013-02-25 04:11:00,11.0,7.0,-100.00,SSE,168,1.0,2.0,82,-99.99,,,0.00,1.000000,,2013-02-25 12:11:00,
2013-02-25 05:12:00,13.0,8.0,-100.00,SSW,195,2.0,3.0,80,-99.99,,,0.00,1.000000,,2013-02-25 13:12:00,
2013-02-25 05:22:00,13.0,8.0,-100.00,SSW,195,2.0,3.0,80,-99.99,,,0.00,1.000000,,2013-02-25 13:22:00,
2013-02-25 06:16:00,14.0,9.0,-100.00,SSW,203,1.0,3.0,79,-99.99,,,0.00,1.000000,,2013-02-25 14:16:00,
2013-02-25 06:22:00,14.0,9.0,-100.00,SSW,203,1.0,3.0,79,-99.99,,,0.00,1.000000,,2013-02-25 14:22:00,
2013-02-25 06:51:00,27.0,11.0,-100.00,SSE,159,5.0,12.0,51,-99.99,,,0.00,3.000000,,2013-02-25 14:51:00,
2013-02-25 07:11:00,27.0,11.0,-100.00,SSE,159,5.0,12.0,51,-99.99,,,0.00,3.000000,,2013-02-25 15:11:00,
2013-02-25 07:21:00,27.0,11.0,-100.00,SSE,159,5.0,12.0,51,-99.99,,,0.00,3.000000,,2013-02-25 15:21:00,
2013-02-25 07:32:00,27.0,11.0,-100.00,SSE,159,5.0,12.0,51,-99.99,,,0.00,3.000000,,2013-02-25 15:32:00,
2013-02-25 07:41:00,27.0,11.0,-100.00,SSE,159,5.0,12.0,51,-99.99,,,0.00,3.000000,,2013-02-25 15:41:00,
2013-02-25 07:51:00,31.0,11.0,-100.00,South,183,3.0,15.0,42,0.00,,,0.00,44.000000,,2013-02-25 15:51:00,
2013-02-25 08:21:00,31.0,11.0,-100.00,South,183,3.0,15.0,42,0.00,,,0.00,44.000000,,2013-02-25 16:21:00,
2013-02-25 08:31:00,31.0,11.0,-100.00,South,183,3.0,15.0,42,0.00,,,0.00,44.000000,,2013-02-25 16:31:00,
2013-02-25 08:41:00,31.0,11.0,-100.00,South,183,3.0,15.0,42,0.00,,,0.00,44.000000,,2013-02-25 16:41:00,
2013-02-25 08:51:00,42.0,14.0,-100.00,South,189,7.0,14.0,31,0.00,,,0.00,213.000000,,2013-02-25 16:51:00,
2013-02-25 09:21:00,42.0,14.0,-100.00,South,189,7.0,14.0,31,0.00,,,0.00,213.000000,,2013-02-25 17:21:00,
2013-02-25 09:31:00,42.0,14.0,-100.00,South,189,7.0,14.0,31,0.00,,,0.00,213.000000,,2013-02-25 17:31:00,
2013-02-25 09:41:00,42.0,14.0,-100.00,South,189,7.0,14.0,31,0.00,,,0.00,213.000000,,2013-02-25 17:41:00,
2013-02-25 09:51:00,45.0,12.0,-100.00,SSW,205,7.0,19.0,26,0.00,,,0.00,516.000000,,2013-02-25 17:51:00,
2013-02-25 10:12:00,45.0,12.0,-100.00,SSW,205,7.0,19.0,26,0.00,,,0.00,516.000000,,2013-02-25 18:12:00,
2013-02-25 10:21:00,45.0,12.0,-100.00,SSW,205,7.0,19.0,26,0.00,,,0.00,516.000000,,2013-02-25 18:21:00,
2013-02-25 10:32:00,45.0,12.0,-100.00,SSW,205,7.0,19.0,26,0.00,,,0.00,516.000000,,2013-02-25 18:32:00,
2013-02-25 10:41:00,45.0,12.0,-100.00,SSW,205,7.0,19.0,26,0.00,,,0.00,516.000000,,2013-02-25 18:41:00,
2013-02-25 11:11:00,49.0,0.0,-100.00,SW,229,8.0,20.0,13,0.00,,,0.00,664.000000,,2013-02-25 19:11:00,
2013-02-25 11:21:00,49.0,0.0,-100.00,SW,229,8.0,20.0,13,0.00,,,0.00,664.000000,,2013-02-25 19:21:00,
2013-02-25 11:51:00,49.0,-1.0,-100.00,SW,222,8.0,18.0,12,0.00,,,0.00,747.000000,,2013-02-25 19:51:00,
2013-02-25 12:11:00,49.0,-1.0,-100.00,SW,222,8.0,18.0,12,0.00,,,0.00,747.000000,,2013-02-25 20:11:00,
2013-02-25 12:21:00,49.0,-1.0,-100.00,SW,222,8.0,18.0,12,0.00,,,0.00,747.000000,,2013-02-25 20:21:00,
2013-02-25 12:31:00,49.0,-1.0,-100.00,SW,222,8.0,18.0,12,0.00,,,0.00,747.000000,,2013-02-25 20:31:00,
2013-02-25 12:41:00,49.0,-1.0,-100.00,SW,222,8.0,18.0,12,0.00,,,0.00,747.000000,,2013-02-25 20:41:00,
2013-02-25 12:51:00,49.0,5.0,-100.00,SSW,206,7.0,19.0,16,0.00,,,0.00,764.000000,,2013-02-25 20:51:00,
2013-02-25 13:11:00,49.0,5.0,-100.00,SSW,206,7.0,19.0,16,0.00,,,0.00,764.000000,,2013-02-25 21:11:00,
2013-02-25 13:21:00,49.0,5.0,-100.00,SSW,206,7.0,19.0,16,0.00,,,0.00,764.000000,,2013-02-25 21:21:00,
2013-02-25 13:31:00,49.0,5.0,-100.00,SSW,206,7.0,19.0,16,0.00,,,0.00,764.000000,,2013-02-25 21:31:00,
2013-02-25 13:41:00,49.0,5.0,-100.00,SSW,206,7.0,19.0,16,0.00,,,0.00,764.000000,,2013-02-25 21:41:00,
2013-02-25 13:51:00,49.0,6.0,-100.00,WSW,241,8.0,19.0,17,0.00,,,0.00,715.000000,,2013-02-25 21:51:00,
2013-02-25 14:11:00,49.0,6.0,-100.00,WSW,241,8.0,19.0,17,0.00,,,0.00,715.000000,,2013-02-25 22:11:00,
2013-02-25 14:21:00,49.0,6.0,-100.00,WSW,241,8.0,19.0,17,0.00,,,0.00,715.000000,,2013-02-25 22:21:00,
2013-02-25 14:31:00,49.0,6.0,-100.00,WSW,241,8.0,19.0,17,0.00,,,0.00,715.000000,,2013-02-25 22:31:00,
2013-02-25 14:41:00,49.0,6.0,-100.00,WSW,241,8.0,19.0,17,0.00,,,0.00,715.000000,,2013-02-25 22:41:00,
2013-02-25 14:51:00,49.0,9.0,-100.00,SW,234,5.0,22.0,19,0.00,,,0.00,605.000000,,2013-02-25 22:51:00,
2013-02-25 15:11:00,49.0,9.0,-100.00,SW,234,5.0,22.0,19,0.00,,,0.00,605.000000,,2013-02-25 23:11:00,
2013-02-25 15:22:00,49.0,9.0,-100.00,SW,234,5.0,22.0,19,0.00,,,0.00,605.000000,,2013-02-25 23:22:00,
2013-02-25 15:31:00,49.0,9.0,-100.00,SW,234,5.0,22.0,19,0.00,,,0.00,605.000000,,2013-02-25 23:31:00,
2013-02-25 15:41:00,49.0,9.0,-100.00,SW,234,5.0,22.0,19,0.00,,,0.00,605.000000,,2013-02-25 23:41:00,
2013-02-25 15:51:00,44.0,19.0,-100.00,SSW,193,8.0,15.0,37,0.00,,,0.00,328.000000,,2013-02-25 23:51:00,
2013-02-25 16:11:00,44.0,19.0,-100.00,SSW,193,8.0,15.0,37,0.00,,,0.00,328.000000,,2013-02-26 00:11:00,
2013-02-25 16:21:00,44.0,19.0,-100.00,SSW,193,8.0,15.0,37,0.00,,,0.00,328.000000,,2013-02-26 00:21:00,
2013-02-25 16:32:00,44.0,19.0,-100.00,SSW,193,8.0,15.0,37,0.00,,,0.00,328.000000,,2013-02-26 00:32:00,
2013-02-25 16:41:00,44.0,19.0,-100.00,SSW,193,8.0,15.0,37,0.00,,,0.00,328.000000,,2013-02-26 00:41:00,
2013-02-25 16:51:00,40.0,19.0,-100.00,SW,228,5.0,14.0,42,0.00,,,0.00,129.000000,,2013-02-26 00:51:00,
2013-02-25 17:11:00,40.0,19.0,-100.00,SW,228,5.0,14.0,42,0.00,,,0.00,129.000000,,2013-02-26 01:11:00,
2013-02-25 17:21:00,40.0,19.0,-100.00,SW,228,5.0,14.0,42,0.00,,,0.00,129.000000,,2013-02-26 01:21:00,
2013-02-25 17:31:00,40.0,19.0,-100.00,SW,228,5.0,14.0,42,0.00,,,0.00,129.000000,,2013-02-26 01:31:00,
2013-02-25 17:41:00,40.0,19.0,-100.00,SW,228,5.0,14.0,42,0.00,,,0.00,129.000000,,2013-02-26 01:41:00,
2013-02-25 17:51:00,35.0,15.0,-100.00,South,188,3.0,12.0,44,0.00,,,0.00,14.000000,,2013-02-26 01:51:00,
2013-02-25 18:11:00,35.0,15.0,-100.00,South,188,3.0,12.0,44,0.00,,,0.00,14.000000,,2013-02-26 02:11:00,
2013-02-25 18:21:00,35.0,15.0,-100.00,South,188,3.0,12.0,44,0.00,,,0.00,14.000000,,2013-02-26 02:21:00,
2013-02-25 18:32:00,35.0,15.0,-100.00,South,188,3.0,12.0,44,0.00,,,0.00,14.000000,,2013-02-26 02:32:00,
2013-02-25 18:41:00,35.0,15.0,-100.00,South,188,3.0,12.0,44,0.00,,,0.00,14.000000,,2013-02-26 02:41:00,
2013-02-25 18:51:00,32.0,22.0,-100.00,SSE,167,4.0,9.0,66,0.00,,,0.00,1.000000,,2013-02-26 02:51:00,
2013-02-25 19:11:00,32.0,22.0,-100.00,SSE,167,4.0,9.0,66,0.00,,,0.00,1.000000,,2013-02-26 03:11:00,
2013-02-25 19:21:00,32.0,22.0,-100.00,SSE,167,4.0,9.0,66,0.00,,,0.00,1.000000,,2013-02-26 03:21:00,
2013-02-25 19:31:00,32.0,22.0,-100.00,SSE,167,4.0,9.0,66,0.00,,,0.00,1.000000,,2013-02-26 03:31:00,
2013-02-25 19:41:00,32.0,22.0,-100.00,SSE,167,4.0,9.0,66,0.00,,,0.00,1.000000,,2013-02-26 03:41:00,
2013-02-25 19:51:00,30.0,21.0,-100.00,South,169,3.0,9.0,70,0.00,,,0.00,1.000000,,2013-02-26 03:51:00,
2013-02-25 20:21:00,30.0,21.0,-100.00,South,169,3.0,9.0,70,0.00,,,0.00,1.000000,,2013-02-26 04:21:00,
2013-02-25 20:32:00,30.0,21.0,-100.00,South,169,3.0,9.0,70,0.00,,,0.00,1.000000,,2013-02-26 04:32:00,
2013-02-25 20:42:00,30.0,21.0,-100.00,South,169,3.0,9.0,70,0.00,,,0.00,1.000000,,2013-02-26 04:42:00,
2013-02-25 20:51:00,25.0,20.0,-100.00,SW,220,0.0,5.0,81,0.00,,,0.00,1.000000,,2013-02-26 04:51:00,
2013-02-25 21:11:00,25.0,20.0,-100.00,SW,220,0.0,5.0,81,0.00,,,0.00,1.000000,,2013-02-26 05:11:00,
2013-02-25 21:21:00,25.0,20.0,-100.00,SW,220,0.0,5.0,81,0.00,,,0.00,1.000000,,2013-02-26 05:21:00,
2013-02-25 21:31:00,25.0,20.0,-100.00,SW,220,0.0,5.0,81,0.00,,,0.00,1.000000,,2013-02-26 05:31:00,
2013-02-25 21:42:00,25.0,20.0,-100.00,SW,220,0.0,5.0,81,0.00,,,0.00,1.000000,,2013-02-26 05:42:00,
2013-02-25 21:51:00,23.0,17.0,-100.00,SW,219,0.0,3.0,79,0.00,,,0.00,1.000000,,2013-02-26 05:51:00,
2013-02-25 22:21:00,23.0,17.0,-100.00,SW,219,0.0,3.0,79,0.00,,,0.00,1.000000,,2013-02-26 06:21:00,
2013-02-25 22:31:00,23.0,17.0,-100.00,SW,219,0.0,3.0,79,0.00,,,0.00,1.000000,,2013-02-26 06:31:00,
2013-02-25 22:41:00,23.0,17.0,-100.00,SW,219,0.0,3.0,79,0.00,,,0.00,1.000000,,2013-02-26 06:41:00,
2013-02-25 23:22:00,21.0,16.0,-100.00,SW,220,1.0,2.0,80,0.00,,,0.00,1.000000,,2013-02-26 07:22:00,
2013-02-25 23:51:00,21.0,11.0,-100.00,WSW,242,1.0,8.0,64,0.00,,,0.00,1.000000,,2013-02-26 07:51:00,